createdAt,value
2022-12-03T00:00:32.684Z,95.62
2022-12-03T00:01:32.627Z,95.72
2022-12-03T00:02:32.643Z,95.83
2022-12-03T00:03:32.557Z,95.72
2022-12-03T00:04:33.387Z,95.62
2022-12-03T00:05:32.562Z,95.41
2022-12-03T00:06:34.884Z,95.62
2022-12-03T00:07:32.777Z,95.83
2022-12-03T00:08:32.956Z,95.41
2022-12-03T00:09:32.434Z,95.31
2022-12-03T00:10:32.417Z,95.62
2022-12-03T00:11:32.476Z,95.83
2022-12-03T00:12:33.039Z,95.72
2022-12-03T00:13:32.566Z,95.09
2022-12-03T00:14:32.397Z,95.20
2022-12-03T00:15:32.414Z,94.78
2022-12-03T00:16:33.810Z,94.89
2022-12-03T00:17:32.315Z,94.89
2022-12-03T00:18:32.637Z,95.20
2022-12-03T00:19:32.311Z,94.99
2022-12-03T00:20:32.468Z,95.20
2022-12-03T00:21:32.777Z,94.99
2022-12-03T00:22:33.038Z,94.78
2022-12-03T00:23:35.957Z,94.89
2022-12-03T00:24:33.429Z,94.46
2022-12-03T00:25:32.221Z,94.78
2022-12-03T00:26:32.230Z,94.89
2022-12-03T00:27:32.598Z,94.78
2022-12-03T00:28:32.551Z,94.68
2022-12-03T00:29:32.310Z,94.46
2022-12-03T00:30:32.975Z,94.68
2022-12-03T00:31:32.241Z,94.57
2022-12-03T00:32:32.141Z,94.68
2022-12-03T00:33:32.128Z,94.57
2022-12-03T00:34:32.118Z,94.46
2022-12-03T00:35:32.098Z,94.57
2022-12-03T00:36:32.111Z,94.78
2022-12-03T00:37:33.057Z,94.46
2022-12-03T00:38:32.320Z,94.89
2022-12-03T00:39:33.095Z,94.46
2022-12-03T00:40:32.028Z,94.89
2022-12-03T00:41:32.014Z,94.89
2022-12-03T00:42:32.008Z,94.89
2022-12-03T00:43:32.503Z,95.09
2022-12-03T00:44:32.956Z,95.20
2022-12-03T00:45:32.014Z,94.89
2022-12-03T00:46:32.003Z,94.99
2022-12-03T00:47:31.941Z,94.99
2022-12-03T00:48:31.970Z,94.78
2022-12-03T00:49:32.050Z,95.20
2022-12-03T00:50:32.899Z,95.20
2022-12-03T00:51:31.938Z,94.78
2022-12-03T00:52:31.878Z,94.82
2022-12-03T00:53:31.907Z,94.51
2022-12-03T00:54:32.423Z,94.57
2022-12-03T00:55:32.600Z,94.40
2022-12-03T00:56:32.037Z,94.40
2022-12-03T00:57:31.849Z,94.30
2022-12-03T00:58:31.792Z,94.09
2022-12-03T00:59:31.824Z,94.20
2022-12-03T01:00:31.782Z,94.51
2022-12-03T01:01:31.847Z,94.51
2022-12-03T01:02:32.940Z,94.20
2022-12-03T01:03:32.851Z,94.36
2022-12-03T01:04:31.800Z,94.09
2022-12-03T01:05:32.649Z,93.88
2022-12-03T01:06:31.936Z,94.20
2022-12-03T01:07:32.533Z,94.51
2022-12-03T01:08:31.663Z,94.36
2022-12-03T01:09:31.687Z,94.09
2022-12-03T01:10:31.644Z,94.09
2022-12-03T01:11:31.712Z,94.20
2022-12-03T01:12:31.644Z,93.78
2022-12-03T01:13:31.590Z,93.57
2022-12-03T01:14:31.621Z,93.26
2022-12-03T01:15:31.696Z,93.15
2022-12-03T01:16:31.782Z,93.26
2022-12-03T01:17:31.545Z,92.73
2022-12-03T01:18:31.822Z,92.52
2022-12-03T01:19:31.523Z,93.04
2022-12-03T01:20:31.581Z,93.36
2022-12-03T01:21:32.653Z,93.57
2022-12-03T01:22:31.593Z,92.83
2022-12-03T01:23:31.501Z,93.26
2022-12-03T01:24:31.462Z,93.26
2022-12-03T01:25:31.453Z,92.83
2022-12-03T01:26:31.494Z,92.52
2022-12-03T01:27:32.052Z,92.52
2022-12-03T01:28:32.281Z,92.63
2022-12-03T01:29:32.865Z,92.21
2022-12-03T01:30:31.418Z,92.83
2022-12-03T01:31:31.505Z,93.04
2022-12-03T01:32:31.651Z,92.83
2022-12-03T01:33:31.373Z,92.73
2022-12-03T01:34:31.332Z,93.15
2022-12-03T01:35:31.362Z,93.04
2022-12-03T01:36:31.310Z,93.36
2022-12-03T01:37:31.323Z,93.26
2022-12-03T01:38:31.363Z,92.83
2022-12-03T01:39:31.316Z,92.94
2022-12-03T01:40:31.292Z,93.15
2022-12-03T01:41:31.403Z,93.46
2022-12-03T01:42:31.310Z,93.36
2022-12-03T01:43:31.244Z,92.98
2022-12-03T01:44:31.210Z,92.77
2022-12-03T01:45:31.238Z,92.88
2022-12-03T01:46:31.280Z,93.82
2022-12-03T01:47:32.122Z,94.03
2022-12-03T01:48:31.156Z,94.24
2022-12-03T01:49:31.196Z,94.40
2022-12-03T01:50:31.143Z,93.61
2022-12-03T01:51:31.272Z,93.19
2022-12-03T01:52:31.134Z,92.98
2022-12-03T01:53:31.268Z,93.30
2022-12-03T01:54:31.113Z,93.61
2022-12-03T01:55:31.094Z,93.71
2022-12-03T01:56:31.125Z,93.71
2022-12-03T01:57:31.136Z,93.61
2022-12-03T01:58:31.056Z,94.13
2022-12-03T01:59:32.076Z,94.34
2022-12-03T02:00:32.000Z,94.45
2022-12-03T02:01:31.204Z,93.93
2022-12-03T02:02:31.793Z,94.03
2022-12-03T02:03:31.046Z,93.71
2022-12-03T02:04:31.001Z,93.71
2022-12-03T02:05:30.989Z,93.93
2022-12-03T02:06:30.964Z,94.13
2022-12-03T02:07:31.159Z,94.24
2022-12-03T02:08:31.001Z,94.56
2022-12-03T02:09:30.905Z,94.56
2022-12-03T02:10:32.046Z,94.03
2022-12-03T02:11:31.004Z,94.13
2022-12-03T02:12:30.857Z,94.56
2022-12-03T02:13:30.890Z,94.66
2022-12-03T02:14:30.825Z,94.76
2022-12-03T02:15:32.037Z,94.76
2022-12-03T02:16:31.138Z,94.76
2022-12-03T02:17:30.821Z,94.45
2022-12-03T02:18:30.826Z,94.66
2022-12-03T02:19:31.056Z,94.97
2022-12-03T02:20:31.595Z,95.07
2022-12-03T02:21:32.019Z,94.76
2022-12-03T02:22:30.750Z,94.66
2022-12-03T02:23:30.777Z,94.66
2022-12-03T02:24:30.710Z,94.97
2022-12-03T02:25:30.709Z,95.29
2022-12-03T02:26:31.308Z,95.50
2022-12-03T02:27:30.717Z,95.60
2022-12-03T02:28:30.679Z,95.50
2022-12-03T02:29:30.797Z,95.29
2022-12-03T02:30:30.837Z,95.29
2022-12-03T02:31:31.685Z,95.39
2022-12-03T02:32:30.709Z,95.39
2022-12-03T02:33:30.592Z,95.70
2022-12-03T02:34:30.857Z,95.50
2022-12-03T02:35:30.636Z,95.39
2022-12-03T02:36:30.847Z,95.39
2022-12-03T02:37:30.547Z,95.29
2022-12-03T02:38:30.663Z,95.07
2022-12-03T02:39:30.530Z,95.18
2022-12-03T02:40:30.522Z,95.39
2022-12-03T02:41:30.538Z,95.50
2022-12-03T02:42:30.479Z,95.50
2022-12-03T02:43:30.568Z,95.50
2022-12-03T02:44:31.340Z,95.60
2022-12-03T02:45:30.456Z,95.92
2022-12-03T02:46:30.537Z,95.81
2022-12-03T02:47:30.541Z,95.92
2022-12-03T02:48:30.432Z,96.23
2022-12-03T02:49:30.512Z,96.23
2022-12-03T02:50:30.409Z,95.92
2022-12-03T02:51:30.403Z,96.02
2022-12-03T02:52:30.349Z,96.12
2022-12-03T02:53:30.358Z,95.92
2022-12-03T02:54:30.405Z,95.92
2022-12-03T02:55:36.378Z,96.23
2022-12-03T02:56:31.349Z,96.33
2022-12-03T02:57:30.318Z,96.12
2022-12-03T02:58:30.308Z,96.23
2022-12-03T02:59:30.286Z,96.12
2022-12-03T03:00:30.351Z,95.60
2022-12-03T03:01:30.407Z,95.60
2022-12-03T03:02:30.316Z,95.29
2022-12-03T03:03:30.228Z,95.18
2022-12-03T03:04:30.203Z,95.18
2022-12-03T03:05:30.234Z,95.07
2022-12-03T03:06:30.172Z,95.18
2022-12-03T03:07:30.179Z,95.07
2022-12-03T03:08:30.148Z,95.07
2022-12-03T03:09:30.993Z,95.39
2022-12-03T03:10:30.894Z,95.07
2022-12-03T03:11:31.312Z,94.66
2022-12-03T03:12:33.592Z,94.76
2022-12-03T03:13:31.125Z,94.24
2022-12-03T03:14:30.752Z,93.93
2022-12-03T03:15:30.193Z,94.03
2022-12-03T03:16:30.900Z,93.93
2022-12-03T03:17:30.073Z,94.03
2022-12-03T03:18:30.033Z,94.03
2022-12-03T03:19:30.012Z,93.82
2022-12-03T03:20:29.983Z,94.07
2022-12-03T03:21:30.073Z,94.49
2022-12-03T03:22:29.991Z,94.38
2022-12-03T03:23:29.956Z,94.70
2022-12-03T03:24:29.952Z,94.70
2022-12-03T03:25:30.133Z,94.49
2022-12-03T03:26:29.964Z,94.49
2022-12-03T03:27:29.915Z,94.81
2022-12-03T03:28:29.893Z,94.91
2022-12-03T03:29:29.904Z,94.91
2022-12-03T03:30:29.940Z,95.12
2022-12-03T03:31:29.906Z,95.12
2022-12-03T03:32:29.870Z,95.12
2022-12-03T03:33:29.835Z,95.01
2022-12-03T03:34:30.002Z,95.12
2022-12-03T03:35:30.494Z,95.12
2022-12-03T03:36:30.290Z,95.01
2022-12-03T03:37:29.804Z,95.33
2022-12-03T03:38:29.794Z,95.54
2022-12-03T03:39:29.785Z,94.81
2022-12-03T03:40:29.752Z,94.81
2022-12-03T03:41:29.764Z,94.91
2022-12-03T03:42:29.735Z,95.12
2022-12-03T03:43:29.705Z,95.64
2022-12-03T03:44:29.763Z,95.54
2022-12-03T03:45:29.985Z,95.54
2022-12-03T03:46:29.740Z,95.33
2022-12-03T03:47:29.718Z,95.33
2022-12-03T03:48:29.702Z,95.23
2022-12-03T03:49:29.636Z,94.91
2022-12-03T03:50:29.702Z,94.70
2022-12-03T03:51:29.619Z,94.38
2022-12-03T03:52:29.677Z,94.28
2022-12-03T03:53:29.624Z,93.76
2022-12-03T03:54:29.604Z,94.28
2022-12-03T03:55:29.546Z,94.38
2022-12-03T03:56:29.533Z,94.49
2022-12-03T03:57:29.575Z,94.18
2022-12-03T03:58:29.567Z,94.28
2022-12-03T03:59:29.535Z,94.28
2022-12-03T04:00:29.674Z,94.18
2022-12-03T04:01:29.551Z,94.07
2022-12-03T04:02:29.536Z,94.18
2022-12-03T04:03:29.489Z,94.28
2022-12-03T04:04:29.537Z,94.28
2022-12-03T04:05:29.412Z,94.18
2022-12-03T04:06:29.415Z,94.28
2022-12-03T04:07:30.565Z,94.28
2022-12-03T04:08:29.444Z,94.38
2022-12-03T04:09:29.441Z,94.38
2022-12-03T04:10:29.349Z,94.28
2022-12-03T04:11:29.537Z,94.60
2022-12-03T04:12:29.337Z,94.60
2022-12-03T04:13:29.616Z,94.38
2022-12-03T04:14:29.855Z,95.12
2022-12-03T04:15:29.374Z,95.01
2022-12-03T04:16:29.301Z,94.91
2022-12-03T04:17:29.433Z,94.81
2022-12-03T04:18:29.313Z,95.12
2022-12-03T04:19:29.290Z,95.01
2022-12-03T04:20:29.236Z,94.91
2022-12-03T04:21:29.258Z,94.91
2022-12-03T04:22:29.197Z,95.23
2022-12-03T04:23:31.065Z,94.85
2022-12-03T04:24:29.269Z,95.12
2022-12-03T04:25:29.169Z,95.12
2022-12-03T04:26:29.177Z,95.43
2022-12-03T04:27:29.237Z,95.43
2022-12-03T04:28:29.230Z,95.33
2022-12-03T04:29:29.986Z,94.85
2022-12-03T04:30:29.196Z,95.06
2022-12-03T04:31:29.101Z,95.06
2022-12-03T04:32:30.188Z,95.48
2022-12-03T04:33:29.114Z,95.79
2022-12-03T04:34:29.101Z,95.68
2022-12-03T04:35:29.171Z,96.00
2022-12-03T04:36:29.061Z,95.90
2022-12-03T04:37:29.063Z,95.90
2022-12-03T04:38:29.071Z,95.68
2022-12-03T04:39:29.084Z,95.48
2022-12-03T04:40:28.999Z,95.68
2022-12-03T04:41:28.968Z,96.00
2022-12-03T04:42:28.988Z,95.90
2022-12-03T04:43:29.142Z,95.37
2022-12-03T04:44:29.002Z,95.17
2022-12-03T04:45:28.948Z,95.58
2022-12-03T04:46:29.047Z,95.79
2022-12-03T04:47:28.888Z,95.90
2022-12-03T04:48:28.877Z,96.00
2022-12-03T04:49:28.889Z,96.00
2022-12-03T04:50:28.919Z,96.00
2022-12-03T04:51:28.869Z,95.58
2022-12-03T04:52:28.858Z,95.68
2022-12-03T04:53:28.862Z,95.17
2022-12-03T04:54:28.816Z,94.95
2022-12-03T04:55:29.271Z,94.95
2022-12-03T04:56:28.770Z,94.54
2022-12-03T04:57:28.842Z,94.54
2022-12-03T04:58:29.497Z,94.43
2022-12-03T04:59:28.811Z,94.74
2022-12-03T05:00:28.791Z,94.64
2022-12-03T05:01:28.900Z,94.22
2022-12-03T05:02:28.805Z,94.43
2022-12-03T05:03:28.718Z,94.43
2022-12-03T05:04:29.681Z,94.43
2022-12-03T05:05:28.950Z,94.12
2022-12-03T05:06:28.674Z,94.01
2022-12-03T05:07:28.677Z,94.12
2022-12-03T05:08:28.658Z,94.12
2022-12-03T05:09:28.627Z,94.12
2022-12-03T05:10:28.598Z,94.12
2022-12-03T05:11:28.639Z,94.01
2022-12-03T05:12:28.590Z,93.80
2022-12-03T05:13:28.601Z,94.32
2022-12-03T05:14:28.559Z,94.43
2022-12-03T05:15:28.592Z,94.22
2022-12-03T05:16:28.608Z,93.80
2022-12-03T05:17:28.520Z,93.70
2022-12-03T05:18:28.531Z,93.80
2022-12-03T05:19:28.544Z,93.91
2022-12-03T05:20:28.492Z,93.91
2022-12-03T05:21:28.544Z,93.91
2022-12-03T05:22:28.468Z,94.12
2022-12-03T05:23:28.475Z,94.01
2022-12-03T05:24:28.430Z,94.01
2022-12-03T05:25:28.430Z,93.80
2022-12-03T05:26:28.420Z,94.22
2022-12-03T05:27:29.345Z,94.12
2022-12-03T05:28:28.398Z,94.01
2022-12-03T05:29:28.751Z,94.01
2022-12-03T05:30:28.641Z,94.22
2022-12-03T05:31:28.453Z,94.32
2022-12-03T05:32:28.354Z,93.80
2022-12-03T05:33:28.325Z,94.12
2022-12-03T05:34:28.368Z,94.43
2022-12-03T05:35:28.301Z,94.22
2022-12-03T05:36:28.280Z,94.12
2022-12-03T05:37:28.373Z,94.22
2022-12-03T05:38:28.252Z,94.06
2022-12-03T05:39:28.284Z,93.84
2022-12-03T05:40:28.251Z,93.95
2022-12-03T05:41:28.206Z,94.16
2022-12-03T05:42:29.108Z,94.26
2022-12-03T05:43:29.004Z,94.47
2022-12-03T05:44:28.204Z,94.43
2022-12-03T05:45:28.161Z,94.58
2022-12-03T05:46:28.399Z,94.37
2022-12-03T05:47:28.220Z,94.16
2022-12-03T05:48:28.134Z,94.06
2022-12-03T05:49:28.137Z,94.16
2022-12-03T05:50:28.138Z,94.26
2022-12-03T05:51:28.087Z,94.37
2022-12-03T05:52:28.091Z,93.95
2022-12-03T05:53:28.094Z,94.26
2022-12-03T05:54:28.048Z,94.16
2022-12-03T05:55:28.136Z,94.26
2022-12-03T05:56:28.025Z,94.26
2022-12-03T05:57:28.047Z,94.06
2022-12-03T05:58:28.015Z,93.84
2022-12-03T05:59:28.021Z,93.84
2022-12-03T06:00:28.013Z,94.06
2022-12-03T06:01:27.996Z,94.06
2022-12-03T06:02:28.077Z,94.16
2022-12-03T06:03:28.066Z,94.16
2022-12-03T06:04:27.955Z,93.84
2022-12-03T06:05:27.912Z,93.63
2022-12-03T06:06:27.909Z,93.84
2022-12-03T06:07:28.779Z,94.16
2022-12-03T06:08:27.895Z,94.37
2022-12-03T06:09:27.894Z,94.26
2022-12-03T06:10:27.901Z,94.06
2022-12-03T06:11:27.897Z,94.37
2022-12-03T06:12:27.858Z,94.58
2022-12-03T06:13:27.867Z,94.68
2022-12-03T06:14:27.899Z,94.58
2022-12-03T06:15:27.842Z,94.47
2022-12-03T06:16:29.321Z,93.95
2022-12-03T06:17:27.784Z,93.84
2022-12-03T06:18:27.845Z,93.63
2022-12-03T06:19:27.791Z,93.53
2022-12-03T06:20:28.097Z,93.84
2022-12-03T06:21:28.946Z,94.06
2022-12-03T06:22:27.707Z,94.37
2022-12-03T06:23:27.831Z,94.37
2022-12-03T06:24:27.687Z,93.74
2022-12-03T06:25:27.674Z,93.84
2022-12-03T06:26:27.708Z,93.63
2022-12-03T06:27:27.672Z,93.74
2022-12-03T06:28:27.630Z,93.74
2022-12-03T06:29:27.672Z,94.16
2022-12-03T06:30:27.616Z,94.16
2022-12-03T06:31:27.718Z,93.74
2022-12-03T06:32:27.569Z,93.74
2022-12-03T06:33:28.818Z,93.63
2022-12-03T06:34:27.799Z,93.74
2022-12-03T06:35:27.620Z,93.95
2022-12-03T06:36:27.607Z,93.53
2022-12-03T06:37:27.519Z,93.32
2022-12-03T06:38:27.495Z,93.53
2022-12-03T06:39:27.514Z,93.84
2022-12-03T06:40:27.547Z,93.32
2022-12-03T06:41:27.458Z,93.11
2022-12-03T06:42:27.521Z,93.21
2022-12-03T06:43:28.930Z,93.32
2022-12-03T06:44:27.440Z,93.21
2022-12-03T06:45:27.515Z,92.90
2022-12-03T06:46:27.927Z,93.01
2022-12-03T06:47:27.446Z,93.21
2022-12-03T06:48:27.367Z,92.58
2022-12-03T06:49:27.476Z,92.16
2022-12-03T06:50:27.398Z,92.16
2022-12-03T06:51:27.357Z,92.27
2022-12-03T06:52:27.362Z,92.38
2022-12-03T06:53:27.347Z,92.80
2022-12-03T06:54:28.788Z,92.80
2022-12-03T06:55:27.328Z,92.48
2022-12-03T06:56:32.815Z,92.27
2022-12-03T06:57:28.277Z,92.06
2022-12-03T06:58:28.458Z,92.16
2022-12-03T06:59:27.737Z,91.96
2022-12-03T07:00:27.258Z,92.27
2022-12-03T07:01:27.332Z,92.80
2022-12-03T07:02:27.296Z,92.69
2022-12-03T07:03:27.236Z,92.38
2022-12-03T07:04:28.397Z,92.69
2022-12-03T07:05:27.199Z,92.58
2022-12-03T07:06:27.169Z,92.80
2022-12-03T07:07:27.226Z,92.69
2022-12-03T07:08:27.149Z,93.01
2022-12-03T07:09:27.153Z,93.11
2022-12-03T07:10:27.123Z,92.90
2022-12-03T07:11:27.090Z,93.32
2022-12-03T07:12:27.267Z,93.32
2022-12-03T07:13:27.210Z,92.69
2022-12-03T07:14:27.241Z,92.80
2022-12-03T07:15:27.061Z,92.69
2022-12-03T07:16:27.127Z,93.11
2022-12-03T07:17:27.088Z,93.32
2022-12-03T07:18:27.043Z,93.01
2022-12-03T07:19:32.315Z,93.11
2022-12-03T07:20:28.122Z,93.01
2022-12-03T07:21:27.001Z,92.48
2022-12-03T07:22:26.992Z,92.16
2022-12-03T07:23:27.000Z,92.38
2022-12-03T07:24:26.963Z,92.90
2022-12-03T07:25:26.900Z,92.16
2022-12-03T07:26:26.901Z,92.38
2022-12-03T07:27:28.483Z,91.96
2022-12-03T07:28:26.894Z,91.53
2022-12-03T07:29:26.913Z,91.53
2022-12-03T07:30:26.843Z,91.96
2022-12-03T07:31:26.910Z,91.64
2022-12-03T07:32:26.844Z,91.64
2022-12-03T07:33:26.841Z,91.64
2022-12-03T07:34:26.842Z,92.27
2022-12-03T07:35:26.810Z,92.16
2022-12-03T07:36:26.807Z,91.85
2022-12-03T07:37:26.961Z,92.06
2022-12-03T07:38:26.841Z,91.96
2022-12-03T07:39:26.754Z,91.43
2022-12-03T07:40:26.741Z,91.22
2022-12-03T07:41:26.759Z,91.33
2022-12-03T07:42:26.722Z,91.22
2022-12-03T07:43:26.761Z,91.75
2022-12-03T07:44:26.713Z,92.27
2022-12-03T07:45:26.713Z,92.27
2022-12-03T07:46:26.721Z,92.16
2022-12-03T07:47:26.645Z,92.16
2022-12-03T07:48:26.645Z,92.58
2022-12-03T07:49:26.768Z,92.80
2022-12-03T07:50:26.743Z,92.80
2022-12-03T07:51:32.033Z,92.80
2022-12-03T07:52:27.565Z,92.27
2022-12-03T07:53:26.620Z,92.27
2022-12-03T07:54:26.543Z,92.06
2022-12-03T07:55:26.564Z,92.27
2022-12-03T07:56:26.526Z,92.48
2022-12-03T07:57:26.557Z,92.48
2022-12-03T07:58:27.318Z,92.48
2022-12-03T07:59:26.552Z,91.85
2022-12-03T08:00:26.586Z,91.85
2022-12-03T08:01:26.612Z,91.96
2022-12-03T08:02:27.487Z,92.27
2022-12-03T08:03:26.460Z,92.16
2022-12-03T08:04:26.504Z,92.16
2022-12-03T08:05:26.443Z,91.96
2022-12-03T08:06:26.395Z,91.75
2022-12-03T08:07:26.499Z,91.75
2022-12-03T08:08:26.409Z,91.53
2022-12-03T08:09:26.363Z,91.64
2022-12-03T08:10:26.418Z,92.06
2022-12-03T08:11:26.333Z,91.96
2022-12-03T08:12:26.342Z,91.85
2022-12-03T08:13:26.345Z,91.96
2022-12-03T08:14:26.297Z,91.96
2022-12-03T08:15:26.752Z,92.27
2022-12-03T08:16:27.254Z,92.58
2022-12-03T08:17:26.403Z,92.38
2022-12-03T08:18:26.285Z,92.16
2022-12-03T08:19:26.225Z,91.43
2022-12-03T08:20:26.274Z,91.33
2022-12-03T08:21:26.245Z,91.53
2022-12-03T08:22:26.187Z,91.64
2022-12-03T08:23:26.239Z,91.53
2022-12-03T08:24:26.215Z,91.85
2022-12-03T08:25:26.164Z,92.06
2022-12-03T08:26:26.136Z,91.53
2022-12-03T08:27:26.176Z,91.96
2022-12-03T08:28:26.143Z,92.06
2022-12-03T08:29:26.147Z,91.64
2022-12-03T08:30:26.289Z,91.53
2022-12-03T08:31:32.653Z,91.71
2022-12-03T08:32:27.118Z,92.02
2022-12-03T08:33:26.044Z,92.13
2022-12-03T08:34:26.210Z,92.13
2022-12-03T08:35:27.048Z,91.91
2022-12-03T08:36:26.258Z,91.39
2022-12-03T08:37:26.043Z,91.18
2022-12-03T08:38:27.482Z,90.55
2022-12-03T08:39:26.991Z,90.97
2022-12-03T08:40:26.517Z,90.97
2022-12-03T08:41:26.777Z,91.39
2022-12-03T08:42:26.129Z,90.80
2022-12-03T08:43:25.950Z,90.87
2022-12-03T08:44:25.960Z,90.76
2022-12-03T08:45:26.027Z,90.76
2022-12-03T08:46:26.090Z,90.97
2022-12-03T08:47:25.920Z,91.39
2022-12-03T08:48:25.898Z,91.50
2022-12-03T08:49:25.878Z,91.71
2022-12-03T08:50:25.880Z,91.08
2022-12-03T08:51:25.836Z,90.66
2022-12-03T08:52:25.821Z,90.34
2022-12-03T08:53:25.835Z,90.66
2022-12-03T08:54:25.907Z,90.87
2022-12-03T08:55:25.779Z,90.76
2022-12-03T08:56:25.836Z,90.97
2022-12-03T08:57:25.817Z,90.97
2022-12-03T08:58:25.749Z,91.28
2022-12-03T08:59:25.726Z,91.60
2022-12-03T09:00:25.737Z,91.39
2022-12-03T09:01:25.883Z,91.08
2022-12-03T09:02:25.736Z,90.66
2022-12-03T09:03:25.715Z,90.66
2022-12-03T09:04:25.808Z,90.97
2022-12-03T09:05:25.940Z,91.08
2022-12-03T09:06:25.678Z,91.60
2022-12-03T09:07:25.777Z,91.60
2022-12-03T09:08:25.618Z,91.18
2022-12-03T09:09:25.596Z,90.76
2022-12-03T09:10:25.656Z,91.18
2022-12-03T09:11:25.645Z,90.76
2022-12-03T09:12:25.629Z,90.66
2022-12-03T09:13:25.580Z,91.28
2022-12-03T09:14:25.582Z,91.24
2022-12-03T09:15:25.524Z,91.56
2022-12-03T09:16:25.644Z,91.14
2022-12-03T09:17:25.532Z,91.03
2022-12-03T09:18:25.488Z,91.24
2022-12-03T09:19:25.471Z,91.66
2022-12-03T09:20:25.481Z,91.24
2022-12-03T09:21:25.483Z,90.41
2022-12-03T09:22:25.521Z,90.51
2022-12-03T09:23:25.446Z,91.24
2022-12-03T09:24:25.421Z,90.61
2022-12-03T09:25:25.441Z,90.41
2022-12-03T09:26:25.442Z,90.20
2022-12-03T09:27:25.431Z,90.20
2022-12-03T09:28:25.423Z,89.98
2022-12-03T09:29:25.401Z,90.20
2022-12-03T09:30:25.370Z,90.09
2022-12-03T09:31:25.583Z,90.61
2022-12-03T09:32:26.535Z,90.51
2022-12-03T09:33:25.320Z,90.61
2022-12-03T09:34:25.311Z,90.30
2022-12-03T09:35:25.285Z,90.41
2022-12-03T09:36:25.280Z,90.51
2022-12-03T09:37:25.280Z,90.93
2022-12-03T09:38:26.240Z,90.51
2022-12-03T09:39:25.362Z,89.88
2022-12-03T09:40:25.353Z,89.98
2022-12-03T09:41:25.212Z,90.72
2022-12-03T09:42:25.185Z,90.51
2022-12-03T09:43:33.541Z,90.51
2022-12-03T09:44:26.186Z,90.41
2022-12-03T09:45:25.567Z,89.98
2022-12-03T09:46:25.183Z,90.20
2022-12-03T09:47:25.186Z,90.72
2022-12-03T09:48:25.164Z,90.51
2022-12-03T09:49:25.101Z,90.30
2022-12-03T09:50:25.095Z,90.51
2022-12-03T09:51:25.092Z,89.88
2022-12-03T09:52:25.063Z,90.30
2022-12-03T09:53:25.075Z,90.41
2022-12-03T09:54:25.065Z,91.35
2022-12-03T09:55:25.018Z,91.14
2022-12-03T09:56:25.568Z,90.61
2022-12-03T09:57:25.019Z,90.83
2022-12-03T09:58:25.116Z,91.66
2022-12-03T09:59:25.018Z,91.14
2022-12-03T10:00:24.973Z,91.03
2022-12-03T10:01:29.200Z,90.61
2022-12-03T10:02:25.980Z,90.83
2022-12-03T10:03:29.705Z,91.03
2022-12-03T10:04:26.078Z,90.72
2022-12-03T10:05:24.947Z,91.03
2022-12-03T10:06:24.920Z,92.08
2022-12-03T10:07:24.982Z,91.98
2022-12-03T10:08:29.406Z,91.46
2022-12-03T10:09:27.028Z,91.03
2022-12-03T10:10:24.840Z,91.56
2022-12-03T10:11:24.831Z,92.19
2022-12-03T10:12:24.960Z,92.29
2022-12-03T10:13:26.035Z,91.77
2022-12-03T10:14:24.833Z,91.24
2022-12-03T10:15:24.781Z,91.66
2022-12-03T10:16:24.928Z,91.66
2022-12-03T10:17:24.877Z,91.94
2022-12-03T10:18:24.803Z,92.04
2022-12-03T10:19:24.743Z,92.77
2022-12-03T10:20:24.734Z,92.35
2022-12-03T10:21:24.692Z,92.25
2022-12-03T10:22:24.716Z,91.72
2022-12-03T10:23:24.713Z,91.72
2022-12-03T10:24:24.676Z,91.62
2022-12-03T10:25:24.732Z,92.25
2022-12-03T10:26:25.904Z,91.94
2022-12-03T10:27:24.639Z,91.62
2022-12-03T10:28:24.621Z,91.41
2022-12-03T10:29:28.347Z,91.62
2022-12-03T10:30:25.664Z,91.20
2022-12-03T10:31:24.835Z,91.09
2022-12-03T10:32:24.585Z,90.99
2022-12-03T10:33:24.567Z,90.89
2022-12-03T10:34:24.555Z,90.58
2022-12-03T10:35:24.584Z,90.93
2022-12-03T10:36:24.943Z,90.83
2022-12-03T10:37:24.498Z,91.46
2022-12-03T10:38:24.638Z,91.31
2022-12-03T10:39:24.548Z,90.93
2022-12-03T10:40:24.521Z,91.62
2022-12-03T10:41:24.490Z,91.83
2022-12-03T10:42:24.466Z,91.62
2022-12-03T10:43:24.447Z,91.41
2022-12-03T10:44:24.440Z,91.41
2022-12-03T10:45:24.455Z,91.94
2022-12-03T10:46:24.544Z,91.31
2022-12-03T10:47:24.470Z,90.89
2022-12-03T10:48:24.478Z,90.78
2022-12-03T10:49:24.369Z,90.58
2022-12-03T10:50:24.395Z,90.99
2022-12-03T10:51:24.328Z,90.36
2022-12-03T10:52:26.111Z,90.58
2022-12-03T10:53:24.320Z,90.47
2022-12-03T10:54:25.276Z,90.58
2022-12-03T10:55:24.260Z,91.20
2022-12-03T10:56:24.625Z,91.31
2022-12-03T10:57:24.301Z,91.47
2022-12-03T10:58:24.236Z,91.16
2022-12-03T10:59:24.238Z,90.33
2022-12-03T11:00:24.206Z,90.43
2022-12-03T11:01:25.180Z,90.11
2022-12-03T11:02:24.301Z,90.33
2022-12-03T11:03:24.429Z,90.53
2022-12-03T11:04:24.173Z,90.22
2022-12-03T11:05:24.176Z,89.53
2022-12-03T11:06:24.190Z,90.16
2022-12-03T11:07:25.138Z,90.53
2022-12-03T11:08:24.200Z,91.37
2022-12-03T11:09:24.120Z,91.47
2022-12-03T11:10:24.110Z,90.95
2022-12-03T11:11:24.088Z,90.43
2022-12-03T11:12:24.058Z,90.11
2022-12-03T11:13:24.109Z,89.90
2022-12-03T11:14:24.070Z,90.22
2022-12-03T11:15:24.060Z,89.80
2022-12-03T11:16:24.133Z,88.86
2022-12-03T11:17:23.990Z,90.33
2022-12-03T11:18:24.023Z,91.16
2022-12-03T11:19:23.976Z,90.84
2022-12-03T11:20:24.012Z,90.01
2022-12-03T11:21:23.985Z,90.01
2022-12-03T11:22:23.984Z,89.59
2022-12-03T11:23:23.978Z,90.64
2022-12-03T11:24:23.940Z,90.43
2022-12-03T11:25:23.912Z,90.64
2022-12-03T11:26:24.009Z,89.80
2022-12-03T11:27:24.153Z,89.34
2022-12-03T11:28:23.840Z,89.80
2022-12-03T11:29:23.831Z,89.55
2022-12-03T11:30:23.826Z,89.23
2022-12-03T11:31:23.892Z,90.08
2022-12-03T11:32:29.273Z,88.82
2022-12-03T11:33:24.812Z,88.82
2022-12-03T11:34:23.794Z,88.82
2022-12-03T11:35:23.781Z,88.71
2022-12-03T11:36:42.118Z,88.71
2022-12-03T11:37:24.776Z,88.09
2022-12-03T11:38:23.760Z,87.98
2022-12-03T11:39:24.533Z,88.82
2022-12-03T11:40:23.700Z,88.92
2022-12-03T11:41:23.711Z,89.45
2022-12-03T11:42:23.715Z,89.86
2022-12-03T11:43:23.675Z,89.86
2022-12-03T11:44:23.657Z,90.39
2022-12-03T11:45:23.622Z,90.08
2022-12-03T11:46:23.630Z,90.18
2022-12-03T11:47:23.629Z,90.08
2022-12-03T11:48:23.663Z,89.45
2022-12-03T11:49:23.604Z,90.08
2022-12-03T11:50:23.593Z,90.08
2022-12-03T11:51:23.570Z,89.76
2022-12-03T11:52:24.242Z,90.28
2022-12-03T11:53:23.517Z,89.76
2022-12-03T11:54:23.549Z,89.45
2022-12-03T11:55:23.504Z,88.50
2022-12-03T11:56:23.514Z,88.71
2022-12-03T11:57:23.512Z,89.13
2022-12-03T11:58:23.675Z,89.13
2022-12-03T11:59:23.527Z,88.71
2022-12-03T12:00:23.549Z,88.82
2022-12-03T12:01:23.435Z,88.50
2022-12-03T12:02:23.402Z,88.71
2022-12-03T12:03:24.565Z,89.23
2022-12-03T12:04:23.537Z,89.34
2022-12-03T12:05:24.378Z,89.34
2022-12-03T12:06:23.383Z,89.23
2022-12-03T12:07:23.393Z,89.76
2022-12-03T12:08:23.333Z,89.55
2022-12-03T12:09:23.393Z,89.34
2022-12-03T12:10:23.331Z,89.97
2022-12-03T12:11:23.338Z,89.65
2022-12-03T12:12:23.320Z,89.45
2022-12-03T12:13:23.267Z,89.86
2022-12-03T12:14:23.266Z,89.76
2022-12-03T12:15:23.277Z,89.86
2022-12-03T12:16:23.322Z,89.65
2022-12-03T12:17:23.255Z,90.39
2022-12-03T12:18:23.263Z,90.39
2022-12-03T12:19:23.229Z,89.86
2022-12-03T12:20:23.193Z,89.65
2022-12-03T12:21:23.216Z,89.83
2022-12-03T12:22:23.216Z,89.55
2022-12-03T12:23:23.164Z,90.56
2022-12-03T12:24:23.194Z,91.08
2022-12-03T12:25:23.118Z,90.14
2022-12-03T12:26:23.125Z,88.67
2022-12-03T12:27:23.203Z,88.92
2022-12-03T12:28:23.095Z,89.13
2022-12-03T12:29:23.124Z,89.86
2022-12-03T12:30:23.064Z,90.91
2022-12-03T12:31:23.110Z,90.77
2022-12-03T12:32:23.034Z,90.28
2022-12-03T12:33:23.095Z,89.45
2022-12-03T12:34:22.985Z,89.97
2022-12-03T12:35:23.009Z,90.49
2022-12-03T12:36:24.178Z,90.39
2022-12-03T12:37:23.000Z,90.18
2022-12-03T12:38:22.969Z,90.70
2022-12-03T12:39:22.929Z,90.70
2022-12-03T12:40:22.946Z,90.08
2022-12-03T12:41:22.955Z,90.59
2022-12-03T12:42:24.115Z,90.08
2022-12-03T12:43:24.315Z,90.70
2022-12-03T12:44:22.947Z,90.08
2022-12-03T12:45:22.869Z,89.76
2022-12-03T12:46:47.400Z,89.97
2022-12-03T12:47:23.893Z,90.28
2022-12-03T12:48:22.838Z,90.18
2022-12-03T12:49:22.808Z,90.39
2022-12-03T12:50:23.848Z,90.81
2022-12-03T12:51:22.840Z,91.22
2022-12-03T12:52:22.846Z,91.43